createdAt,value
2024-05-09T00:01:25.369Z,35.85
2024-05-09T00:02:25.539Z,35.82
2024-05-09T00:03:25.564Z,35.86
2024-05-09T00:04:25.671Z,35.80
2024-05-09T00:05:25.782Z,35.88
2024-05-09T00:06:25.793Z,35.82
2024-05-09T00:07:25.892Z,35.84
2024-05-09T00:08:26.078Z,35.82
2024-05-09T00:09:26.063Z,35.82
2024-05-09T00:10:34.594Z,35.76
2024-05-09T00:11:27.256Z,35.84
2024-05-09T00:12:26.353Z,35.83
2024-05-09T00:13:26.197Z,35.86
2024-05-09T00:14:26.344Z,35.83
2024-05-09T00:15:26.210Z,35.82
2024-05-09T00:16:26.219Z,35.81
2024-05-09T00:17:26.375Z,35.80
2024-05-09T00:18:26.374Z,35.80
2024-05-09T00:19:26.341Z,35.83
2024-05-09T00:20:33.249Z,35.76
2024-05-09T00:21:27.237Z,35.82
2024-05-09T00:22:26.256Z,35.84
2024-05-09T00:23:26.335Z,35.80
2024-05-09T00:24:26.304Z,35.80
2024-05-09T00:25:26.287Z,35.79
2024-05-09T00:26:26.295Z,35.80
2024-05-09T00:27:26.281Z,35.82
2024-05-09T00:28:26.269Z,35.79
2024-05-09T00:29:26.388Z,35.76
2024-05-09T00:30:33.331Z,35.75
2024-05-09T00:31:27.377Z,35.76
2024-05-09T00:32:26.681Z,35.76
2024-05-09T00:33:26.711Z,35.76
2024-05-09T00:34:26.502Z,35.75
2024-05-09T00:35:26.522Z,35.83
2024-05-09T00:36:26.412Z,35.79
2024-05-09T00:37:26.396Z,35.78
2024-05-09T00:38:26.469Z,35.75
2024-05-09T00:39:26.414Z,35.80
2024-05-09T00:40:34.497Z,35.80
2024-05-09T00:41:27.640Z,35.79
2024-05-09T00:42:26.499Z,35.77
2024-05-09T00:43:26.471Z,35.83
2024-05-09T00:44:26.593Z,35.80
2024-05-09T00:45:26.478Z,35.75
2024-05-09T00:46:26.489Z,35.80
2024-05-09T00:47:26.775Z,35.76
2024-05-09T00:48:26.843Z,35.78
2024-05-09T00:49:26.732Z,35.77
2024-05-09T00:50:35.319Z,35.77
2024-05-09T00:51:27.526Z,35.77
2024-05-09T00:52:26.527Z,35.76
2024-05-09T00:53:26.566Z,35.76
2024-05-09T00:54:26.545Z,35.77
2024-05-09T00:55:26.589Z,35.80
2024-05-09T00:56:26.688Z,35.72
2024-05-09T00:57:26.612Z,35.75
2024-05-09T00:58:26.583Z,35.76
2024-05-09T00:59:26.827Z,35.81
2024-05-09T01:00:34.627Z,35.75
2024-05-09T01:01:27.614Z,35.75
2024-05-09T01:02:26.735Z,35.73
2024-05-09T01:03:26.986Z,35.76
2024-05-09T01:04:26.648Z,35.74
2024-05-09T01:05:26.635Z,35.76
2024-05-09T01:06:26.571Z,35.71
2024-05-09T01:07:26.571Z,35.75
2024-05-09T01:08:26.598Z,35.75
2024-05-09T01:09:26.593Z,35.73
2024-05-09T01:11:26.739Z,35.72
2024-05-09T01:12:26.813Z,35.72
2024-05-09T01:13:26.737Z,35.73
2024-05-09T01:14:26.919Z,35.71
2024-05-09T01:15:26.830Z,35.73
2024-05-09T01:16:26.872Z,35.71
2024-05-09T01:17:27.002Z,35.74
2024-05-09T01:18:27.067Z,35.73
2024-05-09T01:19:27.032Z,35.78
2024-05-09T01:20:36.948Z,35.71
2024-05-09T01:21:28.063Z,35.69
2024-05-09T01:22:27.023Z,35.76
2024-05-09T01:23:27.042Z,35.74
2024-05-09T01:24:27.004Z,35.73
2024-05-09T01:25:27.005Z,35.69
2024-05-09T01:26:27.066Z,35.71
2024-05-09T01:27:26.990Z,35.76
2024-05-09T01:28:26.974Z,35.70
2024-05-09T01:29:27.048Z,35.69
2024-05-09T01:30:33.852Z,35.72
2024-05-09T01:31:27.940Z,35.67
2024-05-09T01:32:27.096Z,35.65
2024-05-09T01:33:27.275Z,35.73
2024-05-09T01:34:26.903Z,35.72
2024-05-09T01:35:27.029Z,35.73
2024-05-09T01:36:26.882Z,35.76
2024-05-09T01:37:26.888Z,35.70
2024-05-09T01:38:26.922Z,35.71
2024-05-09T01:39:26.869Z,35.69
2024-05-09T01:40:36.303Z,35.69
2024-05-09T01:41:27.886Z,35.69
2024-05-09T01:42:26.845Z,35.67
2024-05-09T01:43:26.822Z,35.68
2024-05-09T01:44:26.822Z,35.68
2024-05-09T01:45:26.788Z,35.71
2024-05-09T01:46:26.776Z,35.68
2024-05-09T01:47:26.995Z,35.71
2024-05-09T01:48:26.966Z,35.68
2024-05-09T01:49:26.858Z,35.69
2024-05-09T01:50:37.378Z,35.70
2024-05-09T01:51:27.752Z,35.71
2024-05-09T01:52:26.738Z,35.69
2024-05-09T01:53:26.756Z,35.65
2024-05-09T01:54:26.747Z,35.67
2024-05-09T01:55:26.741Z,35.67
2024-05-09T01:56:26.746Z,35.66
2024-05-09T01:57:26.703Z,35.62
2024-05-09T01:58:26.702Z,35.65
2024-05-09T01:59:26.782Z,35.67
2024-05-09T02:00:36.312Z,35.70
2024-05-09T02:01:27.722Z,35.68
2024-05-09T02:02:26.705Z,35.62
2024-05-09T02:03:26.811Z,35.67
2024-05-09T02:04:26.772Z,35.68
2024-05-09T02:05:26.694Z,35.68
2024-05-09T02:06:26.649Z,35.63
2024-05-09T02:07:26.657Z,35.68
2024-05-09T02:08:26.689Z,35.69
2024-05-09T02:09:26.611Z,35.65
2024-05-09T02:10:32.284Z,35.66
2024-05-09T02:11:27.672Z,35.69
2024-05-09T02:12:26.701Z,35.65
2024-05-09T02:13:26.628Z,35.62
2024-05-09T02:14:26.852Z,35.62
2024-05-09T02:15:26.602Z,35.62
2024-05-09T02:16:26.621Z,35.67
2024-05-09T02:17:26.862Z,35.65
2024-05-09T02:18:26.732Z,35.58
2024-05-09T02:19:26.720Z,35.62
2024-05-09T02:20:33.517Z,35.61
2024-05-09T02:21:27.597Z,35.60
2024-05-09T02:22:26.595Z,35.63
2024-05-09T02:23:26.605Z,35.66
2024-05-09T02:24:26.567Z,35.67
2024-05-09T02:25:26.579Z,35.62
2024-05-09T02:26:26.638Z,35.63
2024-05-09T02:27:26.579Z,35.64
2024-05-09T02:28:26.580Z,35.62
2024-05-09T02:29:26.679Z,35.62
2024-05-09T02:30:36.248Z,35.55
2024-05-09T02:31:27.675Z,35.54
2024-05-09T02:32:26.804Z,35.66
2024-05-09T02:33:26.861Z,35.61
2024-05-09T02:34:26.717Z,35.62
2024-05-09T02:35:26.851Z,35.62
2024-05-09T02:36:26.697Z,35.68
2024-05-09T02:37:26.679Z,35.63
2024-05-09T02:38:26.770Z,35.59
2024-05-09T02:39:26.691Z,35.58
2024-05-09T02:40:35.115Z,35.63
2024-05-09T02:41:27.782Z,35.62
2024-05-09T02:42:26.686Z,35.58
2024-05-09T02:43:26.726Z,35.61
2024-05-09T02:44:26.820Z,35.57
2024-05-09T02:45:26.706Z,35.54
2024-05-09T02:46:26.712Z,35.58
2024-05-09T02:47:26.842Z,35.58
2024-05-09T02:48:26.844Z,35.57
2024-05-09T02:49:26.813Z,35.59
2024-05-09T02:50:34.363Z,35.55
2024-05-09T02:51:27.754Z,35.63
2024-05-09T02:52:26.789Z,35.57
2024-05-09T02:53:26.830Z,35.61
2024-05-09T02:54:26.750Z,35.51
2024-05-09T02:55:26.790Z,35.58
2024-05-09T02:56:26.852Z,35.58
2024-05-09T02:57:26.816Z,35.61
2024-05-09T02:58:26.826Z,35.58
2024-05-09T02:59:26.906Z,35.57
2024-05-09T03:00:35.161Z,35.58
2024-05-09T03:01:27.891Z,35.59
2024-05-09T03:02:26.912Z,35.59
2024-05-09T03:03:27.507Z,35.57
2024-05-09T03:04:27.459Z,35.58
2024-05-09T03:05:26.879Z,35.58
2024-05-09T03:06:26.845Z,35.55
2024-05-09T03:07:26.872Z,35.55
2024-05-09T03:08:26.982Z,35.57
2024-05-09T03:09:26.831Z,35.53
2024-05-09T03:11:27.040Z,35.57
2024-05-09T03:12:27.106Z,35.58
2024-05-09T03:13:27.204Z,35.55
2024-05-09T03:14:27.195Z,35.55
2024-05-09T03:15:27.158Z,35.58
2024-05-09T03:16:27.193Z,35.59
2024-05-09T03:17:27.425Z,35.58
2024-05-09T03:18:27.460Z,35.54
2024-05-09T03:19:27.598Z,35.54
2024-05-09T03:20:32.978Z,35.55
2024-05-09T03:21:28.563Z,35.57
2024-05-09T03:22:27.582Z,35.54
2024-05-09T03:23:27.603Z,35.55
2024-05-09T03:24:27.560Z,35.54
2024-05-09T03:25:27.554Z,35.54
2024-05-09T03:26:27.674Z,35.53
2024-05-09T03:27:27.580Z,35.51
2024-05-09T03:28:27.595Z,35.58
2024-05-09T03:29:27.691Z,35.55
2024-05-09T03:30:36.028Z,35.51
2024-05-09T03:31:28.596Z,35.54
2024-05-09T03:32:27.837Z,35.50
2024-05-09T03:33:27.779Z,35.55
2024-05-09T03:34:27.648Z,35.54
2024-05-09T03:35:27.667Z,35.53
2024-05-09T03:36:27.630Z,35.54
2024-05-09T03:37:27.623Z,35.49
2024-05-09T03:38:27.730Z,35.49
2024-05-09T03:39:27.621Z,35.52
2024-05-09T03:40:30.845Z,35.49
2024-05-09T03:41:27.688Z,35.52
2024-05-09T03:42:27.664Z,35.53
2024-05-09T03:43:27.654Z,35.48
2024-05-09T03:44:27.711Z,35.54
2024-05-09T03:45:27.640Z,35.54
2024-05-09T03:46:27.660Z,35.49
2024-05-09T03:47:27.973Z,35.55
2024-05-09T03:48:27.826Z,35.49
2024-05-09T03:49:27.751Z,35.50
2024-05-09T03:50:33.703Z,35.47
2024-05-09T03:51:28.686Z,35.48
2024-05-09T03:52:27.720Z,35.49
2024-05-09T03:53:27.786Z,35.47
2024-05-09T03:54:27.713Z,35.47
2024-05-09T03:55:27.680Z,35.49
2024-05-09T03:56:27.793Z,35.47
2024-05-09T03:57:27.689Z,35.44
2024-05-09T03:58:27.698Z,35.48
2024-05-09T03:59:27.843Z,35.49
2024-05-09T04:00:35.248Z,35.47
2024-05-09T04:01:28.765Z,35.49
2024-05-09T04:02:27.770Z,35.47
2024-05-09T04:03:27.932Z,35.46
2024-05-09T04:04:27.724Z,35.49
2024-05-09T04:05:27.735Z,35.47
2024-05-09T04:06:27.723Z,35.47
2024-05-09T04:07:27.697Z,35.50
2024-05-09T04:08:27.706Z,35.47
2024-05-09T04:09:27.709Z,35.47
2024-05-09T04:10:32.807Z,35.46
2024-05-09T04:11:28.838Z,35.49
2024-05-09T04:12:27.867Z,35.44
2024-05-09T04:13:35.015Z,35.53
2024-05-09T04:14:35.058Z,35.56
2024-05-09T04:15:35.018Z,35.49
2024-05-09T04:16:34.997Z,35.47
2024-05-09T04:17:35.134Z,35.49
2024-05-09T04:18:35.095Z,35.47
2024-05-09T04:19:35.051Z,35.47
2024-05-09T04:20:39.026Z,35.49
2024-05-09T04:21:36.010Z,35.48
2024-05-09T04:22:35.213Z,35.43
2024-05-09T04:23:35.142Z,35.44
2024-05-09T04:24:35.044Z,35.46
2024-05-09T04:25:35.094Z,35.47
2024-05-09T04:26:35.135Z,35.41
2024-05-09T04:27:35.066Z,35.44
2024-05-09T04:28:35.028Z,35.45
2024-05-09T04:29:35.073Z,35.45
2024-05-09T04:30:39.205Z,35.41
2024-05-09T04:31:47.205Z,35.52
2024-05-09T04:32:47.304Z,35.48
2024-05-09T04:33:47.259Z,35.45
2024-05-09T04:34:47.228Z,35.44
2024-05-09T04:35:47.202Z,35.46
2024-05-09T04:36:47.145Z,35.41
2024-05-09T04:37:47.180Z,35.44
2024-05-09T04:38:47.201Z,35.41
2024-05-09T04:39:47.257Z,35.40
2024-05-09T04:40:47.369Z,35.47
2024-05-09T04:41:47.456Z,35.47
2024-05-09T04:42:47.524Z,35.41
2024-05-09T04:43:47.607Z,35.45
2024-05-09T04:44:47.703Z,35.44
2024-05-09T04:45:47.790Z,35.43
2024-05-09T04:46:47.964Z,35.40
2024-05-09T04:47:48.318Z,35.43
2024-05-09T04:48:48.224Z,35.32
2024-05-09T04:49:48.245Z,35.39
2024-05-09T04:50:48.376Z,35.37
2024-05-09T04:51:48.402Z,35.36
2024-05-09T04:52:48.537Z,35.39
2024-05-09T04:53:48.706Z,35.39
2024-05-09T04:54:48.718Z,35.33
2024-05-09T04:55:48.832Z,35.36
2024-05-09T04:56:48.899Z,35.31
2024-05-09T04:57:49.002Z,35.30
2024-05-09T04:58:49.102Z,35.32
2024-05-09T04:59:49.178Z,35.38
2024-05-09T05:00:49.307Z,35.33
2024-05-09T05:01:49.606Z,35.32
2024-05-09T05:02:49.592Z,35.33
2024-05-09T05:03:49.808Z,35.37
2024-05-09T05:04:49.974Z,35.39
2024-05-09T05:05:49.859Z,35.37
2024-05-09T05:06:49.882Z,35.42
2024-05-09T05:07:49.998Z,35.48
2024-05-09T05:08:50.022Z,35.45
2024-05-09T05:09:50.119Z,35.43
2024-05-09T05:10:50.400Z,35.45
2024-05-09T05:11:50.388Z,35.40
2024-05-09T05:12:50.392Z,35.44
2024-05-09T05:13:50.501Z,35.43
2024-05-09T05:14:50.547Z,35.43
2024-05-09T05:15:50.666Z,35.46
2024-05-09T05:16:50.761Z,35.46
2024-05-09T05:17:50.976Z,35.47
2024-05-09T05:18:50.980Z,35.46
2024-05-09T05:19:51.134Z,35.46
2024-05-09T05:20:51.394Z,35.43
2024-05-09T05:21:51.107Z,35.42
2024-05-09T05:22:51.226Z,35.47
2024-05-09T05:23:51.194Z,35.44
2024-05-09T05:24:51.272Z,35.43
2024-05-09T05:25:51.388Z,35.49
2024-05-09T05:26:51.330Z,35.46
2024-05-09T05:27:51.375Z,35.46
2024-05-09T05:28:51.451Z,35.45
2024-05-09T05:29:51.483Z,35.47
2024-05-09T05:30:51.535Z,35.44
2024-05-09T05:32:28.001Z,35.51
2024-05-09T05:33:28.160Z,35.48
2024-05-09T05:34:27.869Z,35.48
2024-05-09T05:35:28.030Z,35.50
2024-05-09T05:36:27.877Z,35.47
2024-05-09T05:37:27.862Z,35.44
2024-05-09T05:38:28.619Z,35.48
2024-05-09T05:39:27.847Z,35.54
2024-05-09T05:40:35.016Z,35.50
2024-05-09T05:41:28.988Z,35.50
2024-05-09T05:42:27.825Z,35.51
2024-05-09T05:43:27.815Z,35.51
2024-05-09T05:44:27.959Z,35.50
2024-05-09T05:45:27.788Z,35.48
2024-05-09T05:46:27.785Z,35.51
2024-05-09T05:47:27.947Z,35.55
2024-05-09T05:48:27.865Z,35.52
2024-05-09T05:49:27.817Z,35.52
2024-05-09T05:50:34.951Z,35.51
2024-05-09T05:51:28.747Z,35.50
2024-05-09T05:52:27.739Z,35.51
2024-05-09T05:53:27.759Z,35.50
2024-05-09T05:54:27.730Z,35.51
2024-05-09T05:55:27.694Z,35.51
2024-05-09T05:56:27.796Z,35.48
2024-05-09T05:57:27.808Z,35.54
2024-05-09T05:58:27.650Z,35.51
2024-05-09T05:59:27.663Z,35.48
2024-05-09T06:00:34.447Z,35.50
2024-05-09T06:01:28.681Z,35.50
2024-05-09T06:02:27.696Z,35.52
2024-05-09T06:03:27.654Z,35.50
2024-05-09T06:04:27.678Z,35.55
2024-05-09T06:05:27.890Z,35.52
2024-05-09T06:06:27.602Z,35.49
2024-05-09T06:07:27.606Z,35.51
2024-05-09T06:08:30.269Z,35.47
2024-05-09T06:09:27.581Z,35.49
2024-05-09T06:10:35.094Z,35.42
2024-05-09T06:11:28.666Z,35.48
2024-05-09T06:12:27.631Z,35.49
2024-05-09T06:13:27.540Z,35.41
2024-05-09T06:14:27.714Z,35.44
2024-05-09T06:15:27.523Z,35.47
2024-05-09T06:16:27.559Z,35.45
2024-05-09T06:17:27.634Z,35.49
2024-05-09T06:18:27.667Z,35.45
2024-05-09T06:19:27.596Z,35.49
2024-05-09T06:20:34.951Z,35.48
2024-05-09T06:21:28.572Z,35.51
2024-05-09T06:22:27.524Z,35.49
2024-05-09T06:23:28.075Z,35.49
2024-05-09T06:24:27.507Z,35.44
2024-05-09T06:25:27.480Z,35.40
2024-05-09T06:26:27.506Z,35.43
2024-05-09T06:27:27.486Z,35.42
2024-05-09T06:28:27.507Z,35.46
2024-05-09T06:29:27.715Z,35.55
2024-05-09T06:30:36.587Z,35.54
2024-05-09T06:31:28.448Z,35.50
2024-05-09T06:32:27.563Z,35.50
2024-05-09T06:33:27.678Z,35.44
2024-05-09T06:34:27.535Z,35.42
2024-05-09T06:35:27.553Z,35.42
2024-05-09T06:36:27.460Z,35.42
2024-05-09T06:37:27.460Z,35.33
2024-05-09T06:38:27.680Z,35.29
2024-05-09T06:39:27.480Z,35.30
2024-05-09T06:40:35.781Z,35.26
2024-05-09T06:41:28.559Z,35.24
2024-05-09T06:42:27.516Z,35.26
2024-05-09T06:43:27.522Z,35.23
2024-05-09T06:44:27.701Z,35.21
2024-05-09T06:45:27.519Z,35.25
2024-05-09T06:46:27.521Z,35.28
2024-05-09T06:47:27.617Z,35.23
2024-05-09T06:48:27.693Z,35.24
2024-05-09T06:49:27.621Z,35.23
2024-05-09T06:50:31.220Z,35.21
2024-05-09T06:51:28.581Z,35.24
2024-05-09T06:52:27.566Z,35.20
2024-05-09T06:53:27.597Z,35.20
2024-05-09T06:54:27.587Z,35.14
2024-05-09T06:55:27.613Z,35.13
2024-05-09T06:56:27.625Z,35.13
2024-05-09T06:57:27.602Z,35.12
2024-05-09T06:58:27.624Z,35.09
2024-05-09T06:59:27.656Z,35.05
2024-05-09T07:00:35.480Z,35.03
2024-05-09T07:01:28.837Z,35.03
2024-05-09T07:02:28.627Z,35.08
2024-05-09T07:03:27.863Z,35.11
2024-05-09T07:04:27.774Z,35.00
2024-05-09T07:05:28.656Z,35.00
2024-05-09T07:06:27.691Z,35.01
2024-05-09T07:07:27.700Z,35.00
2024-05-09T07:08:27.791Z,35.01
2024-05-09T07:09:27.715Z,35.00
2024-05-09T07:10:32.916Z,34.99
2024-05-09T07:11:28.780Z,34.97
2024-05-09T07:12:27.794Z,34.97
2024-05-09T07:13:27.742Z,35.00
2024-05-09T07:14:27.784Z,34.99
2024-05-09T07:15:27.718Z,34.97
2024-05-09T07:16:27.747Z,34.95
2024-05-09T07:17:27.925Z,34.97
2024-05-09T07:18:28.056Z,34.91
2024-05-09T07:19:27.977Z,34.88
2024-05-09T07:20:34.116Z,34.87
2024-05-09T07:21:28.761Z,34.83
2024-05-09T07:22:27.765Z,34.80
2024-05-09T07:23:27.817Z,34.79
2024-05-09T07:24:27.785Z,34.78
2024-05-09T07:25:27.787Z,34.75
2024-05-09T07:26:27.896Z,34.68
2024-05-09T07:27:27.790Z,34.67
2024-05-09T07:28:27.792Z,34.66
2024-05-09T07:29:27.958Z,34.61
2024-05-09T07:30:33.230Z,34.61
2024-05-09T07:31:28.816Z,34.57
2024-05-09T07:32:27.994Z,34.52
2024-05-09T07:33:27.898Z,34.53
2024-05-09T07:34:27.922Z,34.49
2024-05-09T07:35:28.045Z,34.42
2024-05-09T07:36:27.824Z,34.44
2024-05-09T07:37:27.843Z,34.44
2024-05-09T07:38:27.863Z,34.36
2024-05-09T07:39:27.811Z,34.35
2024-05-09T07:40:34.590Z,34.38
2024-05-09T07:41:28.926Z,34.30
2024-05-09T07:42:27.832Z,34.30
2024-05-09T07:43:27.847Z,34.26
2024-05-09T07:44:27.953Z,34.24
2024-05-09T07:45:44.964Z,34.22
2024-05-09T07:47:36.814Z,34.22
2024-05-09T07:48:57.151Z,34.26
2024-05-09T07:50:01.059Z,34.16
2024-05-09T07:53:32.389Z,34.02
2024-05-09T07:53:39.981Z,34.06
2024-05-09T07:54:28.941Z,34.06
2024-05-09T07:55:28.029Z,33.98
2024-05-09T07:56:28.218Z,33.99
2024-05-09T07:57:27.862Z,33.97
2024-05-09T07:58:28.039Z,33.93
2024-05-09T07:59:27.814Z,33.91
2024-05-09T08:00:31.471Z,33.87
2024-05-09T08:01:27.935Z,33.90
2024-05-09T08:02:27.960Z,33.85
2024-05-09T08:03:27.915Z,33.82
2024-05-09T08:04:27.789Z,33.80
2024-05-09T08:05:27.906Z,33.78
2024-05-09T08:06:27.766Z,33.76
2024-05-09T08:07:27.691Z,33.71
2024-05-09T08:08:27.691Z,33.73
2024-05-09T08:09:27.743Z,33.64
2024-05-09T08:10:29.168Z,33.68
2024-05-09T08:11:27.664Z,33.67
2024-05-09T08:12:27.636Z,33.65
2024-05-09T08:13:27.626Z,33.62
2024-05-09T08:14:27.569Z,33.58
2024-05-09T08:15:27.642Z,33.60
2024-05-09T08:16:27.725Z,33.60
2024-05-09T08:17:27.624Z,33.60
2024-05-09T08:18:27.677Z,33.58
2024-05-09T08:19:27.579Z,33.54
2024-05-09T08:20:33.411Z,33.57
2024-05-09T08:21:28.511Z,33.57
2024-05-09T08:22:27.458Z,33.56
2024-05-09T08:23:27.465Z,33.60
2024-05-09T08:24:28.087Z,33.54
2024-05-09T08:25:27.519Z,33.51
2024-05-09T08:26:27.415Z,33.51
2024-05-09T08:27:27.437Z,33.48
2024-05-09T08:28:27.455Z,33.56
2024-05-09T08:29:27.390Z,33.51
2024-05-09T08:30:33.659Z,33.54
2024-05-09T08:31:28.570Z,33.44
2024-05-09T08:32:27.560Z,33.47
2024-05-09T08:33:27.633Z,33.45
2024-05-09T08:34:27.528Z,33.42
2024-05-09T08:35:27.376Z,33.50
2024-05-09T08:36:27.420Z,33.47
2024-05-09T08:37:31.093Z,33.50
2024-05-09T08:38:28.361Z,33.50
2024-05-09T08:39:27.354Z,33.51
2024-05-09T08:40:33.605Z,33.47
2024-05-09T08:41:28.325Z,33.44
2024-05-09T08:42:27.293Z,33.42
2024-05-09T08:43:27.334Z,33.40
2024-05-09T08:44:27.262Z,33.44
2024-05-09T08:45:27.332Z,33.44
2024-05-09T08:46:27.381Z,33.44
2024-05-09T08:47:27.361Z,33.41
2024-05-09T08:48:27.379Z,33.28
2024-05-09T08:49:27.294Z,33.31
2024-05-09T08:50:35.608Z,33.27
2024-05-09T08:51:28.283Z,33.26
2024-05-09T08:52:27.174Z,33.30
2024-05-09T08:53:27.163Z,33.27
2024-05-09T08:54:27.201Z,33.22
2024-05-09T08:55:27.134Z,33.23
2024-05-09T08:56:27.124Z,33.17
2024-05-09T08:57:27.209Z,33.16
2024-05-09T08:58:27.131Z,33.10
2024-05-09T08:59:27.115Z,33.08
2024-05-09T09:00:34.138Z,33.11
2024-05-09T09:01:28.171Z,33.07
2024-05-09T09:02:27.168Z,33.02
2024-05-09T09:03:27.194Z,33.06
2024-05-09T09:04:27.112Z,33.12
2024-05-09T09:05:27.291Z,33.08
2024-05-09T09:06:27.147Z,33.09
2024-05-09T09:07:27.159Z,33.02
2024-05-09T09:08:26.966Z,33.04
2024-05-09T09:09:27.071Z,33.07
2024-05-09T09:10:31.994Z,33.07
2024-05-09T09:11:27.975Z,32.98
2024-05-09T09:12:26.951Z,33.06
2024-05-09T09:13:26.910Z,33.07
2024-05-09T09:14:26.886Z,33.08
2024-05-09T09:15:27.006Z,33.02
2024-05-09T09:16:26.922Z,32.93
2024-05-09T09:17:26.930Z,32.90
2024-05-09T09:18:27.327Z,33.00
2024-05-09T09:19:26.976Z,32.97
2024-05-09T09:20:33.984Z,32.97
2024-05-09T09:21:27.811Z,33.00
2024-05-09T09:22:26.801Z,32.96
2024-05-09T09:23:26.744Z,32.97
2024-05-09T09:24:26.808Z,32.95
2024-05-09T09:25:26.733Z,32.89
2024-05-09T09:26:26.711Z,32.89
2024-05-09T09:27:26.738Z,32.83
2024-05-09T09:28:26.690Z,32.76
2024-05-09T09:29:26.678Z,32.70
2024-05-09T09:30:35.360Z,32.70
2024-05-09T09:31:27.828Z,32.70
2024-05-09T09:32:26.752Z,32.73
2024-05-09T09:33:26.760Z,32.59
2024-05-09T09:34:26.735Z,32.59
2024-05-09T09:35:26.648Z,32.57
2024-05-09T09:36:26.646Z,32.62
2024-05-09T09:37:26.628Z,32.57
2024-05-09T09:38:26.591Z,32.54
2024-05-09T09:39:26.574Z,32.57
2024-05-09T09:40:31.967Z,32.50
2024-05-09T09:41:27.611Z,32.50
2024-05-09T09:42:26.607Z,32.53
2024-05-09T09:43:26.668Z,32.49
2024-05-09T09:44:26.555Z,32.49
2024-05-09T09:45:26.578Z,32.49
2024-05-09T09:46:26.708Z,32.54
2024-05-09T09:47:26.593Z,32.53
2024-05-09T09:48:26.572Z,32.54
2024-05-09T09:49:26.539Z,32.50
2024-05-09T09:50:33.505Z,32.54
2024-05-09T09:51:27.590Z,32.54
2024-05-09T09:52:26.517Z,32.49
2024-05-09T09:53:26.441Z,32.47
2024-05-09T09:54:26.436Z,32.50
2024-05-09T09:55:26.450Z,32.44
2024-05-09T09:56:26.371Z,32.46
2024-05-09T09:57:26.370Z,32.47
2024-05-09T09:58:26.668Z,32.46
2024-05-09T09:59:26.307Z,32.51
2024-05-09T10:00:30.698Z,32.44
2024-05-09T10:01:27.416Z,32.45
2024-05-09T10:02:26.398Z,32.44
2024-05-09T10:03:26.397Z,32.46
2024-05-09T10:04:26.353Z,32.41
2024-05-09T10:05:26.578Z,32.44
2024-05-09T10:06:26.224Z,32.40
2024-05-09T10:07:26.236Z,32.40
2024-05-09T10:08:26.180Z,32.32
2024-05-09T10:09:26.173Z,32.41
2024-05-09T10:10:32.154Z,32.40
2024-05-09T10:11:27.307Z,32.42
2024-05-09T10:12:26.238Z,32.38
2024-05-09T10:13:26.337Z,32.48
2024-05-09T10:14:26.168Z,32.35
2024-05-09T10:15:26.149Z,32.38
2024-05-09T10:16:26.186Z,32.35
2024-05-09T10:17:26.179Z,32.35
2024-05-09T10:18:29.217Z,32.32
2024-05-09T10:19:27.178Z,32.32
2024-05-09T10:20:30.848Z,32.35
2024-05-09T10:21:27.077Z,32.32
2024-05-09T10:22:26.119Z,32.40
2024-05-09T10:23:26.014Z,32.35
2024-05-09T10:24:25.991Z,32.26
2024-05-09T10:25:26.006Z,32.34
2024-05-09T10:26:25.972Z,32.22
2024-05-09T10:27:25.957Z,32.30
2024-05-09T10:28:25.964Z,32.26
2024-05-09T10:29:25.930Z,32.25
2024-05-09T10:30:33.672Z,32.20
2024-05-09T10:31:27.004Z,32.22
2024-05-09T10:32:26.010Z,32.20
2024-05-09T10:33:26.022Z,32.28
2024-05-09T10:34:26.256Z,32.22
2024-05-09T10:35:25.913Z,32.21
2024-05-09T10:36:25.897Z,32.12
2024-05-09T10:37:25.932Z,32.17
2024-05-09T10:38:25.863Z,32.17
2024-05-09T10:39:25.921Z,32.04
2024-05-09T10:40:31.056Z,32.11
2024-05-09T10:41:26.896Z,32.04
2024-05-09T10:42:25.887Z,32.04
2024-05-09T10:43:25.898Z,32.08
2024-05-09T10:44:25.803Z,32.00
2024-05-09T10:45:25.820Z,32.03
2024-05-09T10:46:25.839Z,32.00
2024-05-09T10:47:25.870Z,32.02
2024-05-09T10:48:25.847Z,32.00
2024-05-09T10:49:25.930Z,31.94
2024-05-09T10:50:29.103Z,31.96
2024-05-09T10:51:26.827Z,31.94
2024-05-09T10:52:25.795Z,31.96
2024-05-09T10:53:25.778Z,31.95
2024-05-09T10:54:25.759Z,31.96
2024-05-09T10:55:25.899Z,31.94
2024-05-09T10:56:25.727Z,31.95
2024-05-09T10:57:25.703Z,31.94
2024-05-09T10:58:25.686Z,31.85
2024-05-09T10:59:25.710Z,31.89
2024-05-09T11:00:33.084Z,31.81
2024-05-09T11:01:26.792Z,31.81
2024-05-09T11:02:25.876Z,31.82
2024-05-09T11:03:25.859Z,31.84
2024-05-09T11:04:25.720Z,31.82
2024-05-09T11:05:25.758Z,31.82
2024-05-09T11:06:25.658Z,31.83
2024-05-09T11:07:25.665Z,31.81
2024-05-09T11:08:25.598Z,31.74
2024-05-09T11:09:25.581Z,31.84
2024-05-09T11:10:33.330Z,31.83
2024-05-09T11:11:26.666Z,31.81
2024-05-09T11:12:25.642Z,31.77
2024-05-09T11:13:25.646Z,31.71
2024-05-09T11:14:25.592Z,31.77
2024-05-09T11:15:25.564Z,31.76
2024-05-09T11:16:25.595Z,31.77
2024-05-09T11:17:25.682Z,31.73
2024-05-09T11:18:26.728Z,31.69
2024-05-09T11:19:25.732Z,31.75
2024-05-09T11:20:29.695Z,31.74
2024-05-09T11:21:25.532Z,31.71
2024-05-09T11:22:25.610Z,31.72
2024-05-09T11:23:25.482Z,31.74
2024-05-09T11:24:25.477Z,31.71
2024-05-09T11:25:25.573Z,31.75
2024-05-09T11:26:25.568Z,31.74
2024-05-09T11:27:25.415Z,31.72
2024-05-09T11:28:25.455Z,31.67
2024-05-09T11:29:25.375Z,31.64
2024-05-09T11:30:30.172Z,31.65
2024-05-09T11:31:26.504Z,31.72
2024-05-09T11:32:25.549Z,31.64
2024-05-09T11:33:25.343Z,31.68
2024-05-09T11:34:25.388Z,31.60
2024-05-09T11:35:25.243Z,31.70
2024-05-09T11:36:25.291Z,31.63
2024-05-09T11:37:25.322Z,31.69
2024-05-09T11:38:25.245Z,31.63
2024-05-09T11:39:25.279Z,31.60
2024-05-09T11:40:28.643Z,31.63
2024-05-09T11:41:26.190Z,31.63
2024-05-09T11:42:25.176Z,31.60
2024-05-09T11:43:25.182Z,31.56
2024-05-09T11:44:25.111Z,31.48
2024-05-09T11:45:25.106Z,31.47
2024-05-09T11:46:25.142Z,31.53
2024-05-09T11:47:25.228Z,31.49
2024-05-09T11:48:25.471Z,31.44
2024-05-09T11:49:27.029Z,31.40
2024-05-09T11:50:29.979Z,31.37
2024-05-09T11:51:26.036Z,31.36
2024-05-09T11:52:25.036Z,31.34
2024-05-09T11:53:24.990Z,31.33
2024-05-09T11:54:24.941Z,31.30
2024-05-09T11:55:27.549Z,31.30
2024-05-09T11:56:24.927Z,31.23
2024-05-09T11:57:25.682Z,31.21
2024-05-09T11:58:24.929Z,31.23
2024-05-09T11:59:24.890Z,31.18
2024-05-09T12:00:33.206Z,31.17
2024-05-09T12:01:27.918Z,31.11
2024-05-09T12:02:24.839Z,31.14
2024-05-09T12:03:24.846Z,31.08
2024-05-09T12:04:24.915Z,31.07
2024-05-09T12:05:24.892Z,31.01
2024-05-09T12:06:24.693Z,30.98
2024-05-09T12:07:24.732Z,31.00
2024-05-09T12:08:24.674Z,30.98
2024-05-09T12:09:24.657Z,30.92
2024-05-09T12:10:32.121Z,30.88
2024-05-09T12:11:25.640Z,30.84
2024-05-09T12:12:24.586Z,30.81
2024-05-09T12:13:24.718Z,30.80
2024-05-09T12:14:24.557Z,30.75
2024-05-09T12:15:24.535Z,30.71
2024-05-09T12:16:24.867Z,30.74
2024-05-09T12:17:24.604Z,30.73
2024-05-09T12:18:24.553Z,30.62
2024-05-09T12:19:24.604Z,30.66
2024-05-09T12:20:32.388Z,30.61
2024-05-09T12:21:25.478Z,30.61
2024-05-09T12:22:24.504Z,30.64
2024-05-09T12:23:24.442Z,30.62
2024-05-09T12:24:24.419Z,30.61
2024-05-09T12:25:24.434Z,30.55
2024-05-09T12:26:24.378Z,30.61
2024-05-09T12:27:24.377Z,30.56
2024-05-09T12:28:24.623Z,30.56
2024-05-09T12:29:24.319Z,30.60
2024-05-09T12:30:33.263Z,30.62
2024-05-09T12:31:25.452Z,30.64
2024-05-09T12:32:24.400Z,30.59
2024-05-09T12:33:24.534Z,30.62
2024-05-09T12:34:24.326Z,30.59
2024-05-09T12:35:24.198Z,30.52
2024-05-09T12:36:24.204Z,30.52
2024-05-09T12:37:24.231Z,30.49
2024-05-09T12:38:24.182Z,30.45
2024-05-09T12:39:24.170Z,30.46
2024-05-09T12:40:31.851Z,30.46
2024-05-09T12:41:25.123Z,30.38
2024-05-09T12:42:27.459Z,30.41
2024-05-09T12:43:24.194Z,30.39
2024-05-09T12:44:24.077Z,30.36
2024-05-09T12:45:24.056Z,30.31
2024-05-09T12:46:24.131Z,30.36
2024-05-09T12:47:24.119Z,30.36
2024-05-09T12:48:24.189Z,30.38
2024-05-09T12:49:24.253Z,30.36
2024-05-09T12:50:31.064Z,30.31
2024-05-09T12:51:25.041Z,30.31
2024-05-09T12:52:24.035Z,30.31
2024-05-09T12:53:24.071Z,30.28
2024-05-09T12:54:24.137Z,30.25
2024-05-09T12:55:24.079Z,30.32
2024-05-09T12:56:24.070Z,30.31
2024-05-09T12:57:24.111Z,30.31
2024-05-09T12:58:24.510Z,30.31
2024-05-09T12:59:24.049Z,30.32